sensor_id;sensor_type;location;lat;lon;timestamp;temperature;humidity
65707;SHT31;52423;43.512;5.220;2024-03-25T00:01:53;9.99;51.69
65707;SHT31;52423;43.512;5.220;2024-03-25T00:04:19;9.89;52.68
65707;SHT31;52423;43.512;5.220;2024-03-25T00:06:46;9.81;52.92
65707;SHT31;52423;43.512;5.220;2024-03-25T00:09:11;9.89;51.85
65707;SHT31;52423;43.512;5.220;2024-03-25T00:11:42;9.91;51.67
65707;SHT31;52423;43.512;5.220;2024-03-25T00:14:08;9.79;53.36
65707;SHT31;52423;43.512;5.220;2024-03-25T00:16:34;9.72;53.08
65707;SHT31;52423;43.512;5.220;2024-03-25T00:19:00;9.77;52.08
65707;SHT31;52423;43.512;5.220;2024-03-25T00:21:25;9.68;52.60
65707;SHT31;52423;43.512;5.220;2024-03-25T00:23:51;9.52;53.44
65707;SHT31;52423;43.512;5.220;2024-03-25T00:26:16;9.62;53.49
65707;SHT31;52423;43.512;5.220;2024-03-25T00:28:42;9.72;53.15
65707;SHT31;52423;43.512;5.220;2024-03-25T00:31:09;9.77;53.18
65707;SHT31;52423;43.512;5.220;2024-03-25T00:33:34;9.70;52.63
65707;SHT31;52423;43.512;5.220;2024-03-25T00:36:00;9.79;52.15
65707;SHT31;52423;43.512;5.220;2024-03-25T00:38:25;9.64;52.43
65707;SHT31;52423;43.512;5.220;2024-03-25T00:40:50;9.45;54.42
65707;SHT31;52423;43.512;5.220;2024-03-25T00:43:16;9.30;53.99
65707;SHT31;52423;43.512;5.220;2024-03-25T00:45:42;9.24;54.67
65707;SHT31;52423;43.512;5.220;2024-03-25T00:48:08;9.35;55.41
65707;SHT31;52423;43.512;5.220;2024-03-25T00:50:33;9.38;53.95
65707;SHT31;52423;43.512;5.220;2024-03-25T00:52:59;9.35;54.25
65707;SHT31;52423;43.512;5.220;2024-03-25T00:55:24;9.40;54.31
65707;SHT31;52423;43.512;5.220;2024-03-25T00:57:50;9.44;54.00
65707;SHT31;52423;43.512;5.220;2024-03-25T01:00:16;9.58;53.76
65707;SHT31;52423;43.512;5.220;2024-03-25T01:02:42;9.34;55.87
65707;SHT31;52423;43.512;5.220;2024-03-25T01:05:08;9.30;55.03
65707;SHT31;52423;43.512;5.220;2024-03-25T01:07:34;9.28;55.09
65707;SHT31;52423;43.512;5.220;2024-03-25T01:09:59;9.20;55.08
65707;SHT31;52423;43.512;5.220;2024-03-25T01:12:25;9.23;56.18
65707;SHT31;52423;43.512;5.220;2024-03-25T01:14:51;9.20;55.53
65707;SHT31;52423;43.512;5.220;2024-03-25T01:17:16;9.04;56.16
65707;SHT31;52423;43.512;5.220;2024-03-25T01:19:42;8.84;56.17
65707;SHT31;52423;43.512;5.220;2024-03-25T01:22:08;8.69;56.09
65707;SHT31;52423;43.512;5.220;2024-03-25T01:24:34;8.53;57.58
65707;SHT31;52423;43.512;5.220;2024-03-25T01:27:00;8.53;58.87
65707;SHT31;52423;43.512;5.220;2024-03-25T01:29:25;8.52;58.96
65707;SHT31;52423;43.512;5.220;2024-03-25T01:31:50;8.49;57.89
65707;SHT31;52423;43.512;5.220;2024-03-25T01:34:16;8.52;59.48
65707;SHT31;52423;43.512;5.220;2024-03-25T01:36:42;8.55;58.19
65707;SHT31;52423;43.512;5.220;2024-03-25T01:39:07;8.53;59.32
65707;SHT31;52423;43.512;5.220;2024-03-25T01:41:33;8.39;59.99
65707;SHT31;52423;43.512;5.220;2024-03-25T01:43:58;8.46;58.72
65707;SHT31;52423;43.512;5.220;2024-03-25T01:46:24;8.49;57.87
65707;SHT31;52423;43.512;5.220;2024-03-25T01:48:50;8.17;58.50
65707;SHT31;52423;43.512;5.220;2024-03-25T01:51:18;7.93;59.81
65707;SHT31;52423;43.512;5.220;2024-03-25T01:53:46;7.94;60.63
65707;SHT31;52423;43.512;5.220;2024-03-25T01:56:13;8.00;59.96
65707;SHT31;52423;43.512;5.220;2024-03-25T01:58:39;7.98;61.00
65707;SHT31;52423;43.512;5.220;2024-03-25T02:01:05;8.07;60.82
65707;SHT31;52423;43.512;5.220;2024-03-25T02:03:30;8.14;59.36
65707;SHT31;52423;43.512;5.220;2024-03-25T02:06:01;8.10;60.20
65707;SHT31;52423;43.512;5.220;2024-03-25T02:08:28;8.04;61.31
65707;SHT31;52423;43.512;5.220;2024-03-25T02:10:54;8.07;60.18
65707;SHT31;52423;43.512;5.220;2024-03-25T02:13:21;8.05;59.99
65707;SHT31;52423;43.512;5.220;2024-03-25T02:15:47;8.11;58.99
65707;SHT31;52423;43.512;5.220;2024-03-25T02:18:12;8.05;59.90
65707;SHT31;52423;43.512;5.220;2024-03-25T02:20:38;8.12;58.82
65707;SHT31;52423;43.512;5.220;2024-03-25T02:23:03;8.02;59.49
65707;SHT31;52423;43.512;5.220;2024-03-25T02:25:31;8.11;58.19
65707;SHT31;52423;43.512;5.220;2024-03-25T02:27:57;7.98;59.15
65707;SHT31;52423;43.512;5.220;2024-03-25T02:30:23;8.08;57.32
65707;SHT31;52423;43.512;5.220;2024-03-25T02:32:48;7.93;58.88
65707;SHT31;52423;43.512;5.220;2024-03-25T02:35:16;7.91;59.35
65707;SHT31;52423;43.512;5.220;2024-03-25T02:37:42;8.00;58.59
65707;SHT31;52423;43.512;5.220;2024-03-25T02:40:08;8.04;58.43
65707;SHT31;52423;43.512;5.220;2024-03-25T02:42:35;8.05;58.18
65707;SHT31;52423;43.512;5.220;2024-03-25T02:45:02;8.05;59.14
65707;SHT31;52423;43.512;5.220;2024-03-25T02:47:27;8.01;58.71
65707;SHT31;52423;43.512;5.220;2024-03-25T02:49:53;7.89;58.71
65707;SHT31;52423;43.512;5.220;2024-03-25T02:52:19;7.77;59.99
65707;SHT31;52423;43.512;5.220;2024-03-25T02:54:45;7.81;59.53
65707;SHT31;52423;43.512;5.220;2024-03-25T02:57:10;7.84;57.92
65707;SHT31;52423;43.512;5.220;2024-03-25T02:59:35;7.76;57.72
65707;SHT31;52423;43.512;5.220;2024-03-25T03:02:01;7.65;57.86
65707;SHT31;52423;43.512;5.220;2024-03-25T03:04:26;7.43;59.60
65707;SHT31;52423;43.512;5.220;2024-03-25T03:06:52;7.36;62.07
65707;SHT31;52423;43.512;5.220;2024-03-25T03:09:17;7.35;62.17
65707;SHT31;52423;43.512;5.220;2024-03-25T03:11:42;7.30;62.24
65707;SHT31;52423;43.512;5.220;2024-03-25T03:14:08;7.42;61.47
65707;SHT31;52423;43.512;5.220;2024-03-25T03:16:34;7.23;62.85
65707;SHT31;52423;43.512;5.220;2024-03-25T03:18:59;7.16;62.95
65707;SHT31;52423;43.512;5.220;2024-03-25T03:21:24;7.25;62.44
65707;SHT31;52423;43.512;5.220;2024-03-25T03:23:50;7.22;61.91
65707;SHT31;52423;43.512;5.220;2024-03-25T03:26:15;7.23;62.08
65707;SHT31;52423;43.512;5.220;2024-03-25T03:28:40;7.18;62.33
65707;SHT31;52423;43.512;5.220;2024-03-25T03:31:06;7.12;62.55
65707;SHT31;52423;43.512;5.220;2024-03-25T03:33:32;7.08;62.35
65707;SHT31;52423;43.512;5.220;2024-03-25T03:35:57;7.02;61.83
65707;SHT31;52423;43.512;5.220;2024-03-25T03:38:23;7.01;61.86
65707;SHT31;52423;43.512;5.220;2024-03-25T03:41:02;6.98;62.26
65707;SHT31;52423;43.512;5.220;2024-03-25T03:43:32;7.11;59.73
65707;SHT31;52423;43.512;5.220;2024-03-25T03:45:57;7.23;57.59
65707;SHT31;52423;43.512;5.220;2024-03-25T03:48:22;7.23;58.05
65707;SHT31;52423;43.512;5.220;2024-03-25T03:50:48;7.25;57.49
65707;SHT31;52423;43.512;5.220;2024-03-25T03:53:13;7.30;57.77
65707;SHT31;52423;43.512;5.220;2024-03-25T03:55:39;7.35;57.20
65707;SHT31;52423;43.512;5.220;2024-03-25T03:58:04;7.43;57.05
65707;SHT31;52423;43.512;5.220;2024-03-25T04:00:33;7.43;56.93
65707;SHT31;52423;43.512;5.220;2024-03-25T04:02:58;7.50;55.41
65707;SHT31;52423;43.512;5.220;2024-03-25T04:05:24;7.56;55.11
65707;SHT31;52423;43.512;5.220;2024-03-25T04:07:50;7.50;55.32
65707;SHT31;52423;43.512;5.220;2024-03-25T04:10:15;7.50;54.71
65707;SHT31;52423;43.512;5.220;2024-03-25T04:12:40;7.48;54.97
65707;SHT31;52423;43.512;5.220;2024-03-25T04:15:07;7.50;54.66
65707;SHT31;52423;43.512;5.220;2024-03-25T04:17:32;7.46;55.61
65707;SHT31;52423;43.512;5.220;2024-03-25T04:20:00;7.58;54.91
65707;SHT31;52423;43.512;5.220;2024-03-25T04:22:26;7.69;54.61
65707;SHT31;52423;43.512;5.220;2024-03-25T04:24:51;7.74;55.25
65707;SHT31;52423;43.512;5.220;2024-03-25T04:27:17;7.74;56.12
65707;SHT31;52423;43.512;5.220;2024-03-25T04:29:45;7.74;54.68
65707;SHT31;52423;43.512;5.220;2024-03-25T04:32:11;7.79;54.68
65707;SHT31;52423;43.512;5.220;2024-03-25T04:34:36;7.81;54.35
65707;SHT31;52423;43.512;5.220;2024-03-25T04:37:01;7.83;54.24
65707;SHT31;52423;43.512;5.220;2024-03-25T04:39:27;7.87;53.53
65707;SHT31;52423;43.512;5.220;2024-03-25T04:41:52;7.83;53.90
65707;SHT31;52423;43.512;5.220;2024-03-25T04:44:17;7.87;53.18
65707;SHT31;52423;43.512;5.220;2024-03-25T04:46:43;7.93;53.88
65707;SHT31;52423;43.512;5.220;2024-03-25T04:49:10;8.01;52.83
65707;SHT31;52423;43.512;5.220;2024-03-25T04:51:35;7.93;53.55
65707;SHT31;52423;43.512;5.220;2024-03-25T04:54:00;7.84;54.69
65707;SHT31;52423;43.512;5.220;2024-03-25T04:56:26;7.90;55.30
65707;SHT31;52423;43.512;5.220;2024-03-25T04:58:51;7.90;55.29
65707;SHT31;52423;43.512;5.220;2024-03-25T05:01:16;7.76;54.69
65707;SHT31;52423;43.512;5.220;2024-03-25T05:03:42;7.70;54.72
65707;SHT31;52423;43.512;5.220;2024-03-25T05:06:07;7.65;54.32
65707;SHT31;52423;43.512;5.220;2024-03-25T05:08:36;7.73;54.19
65707;SHT31;52423;43.512;5.220;2024-03-25T05:11:01;7.76;55.33
65707;SHT31;52423;43.512;5.220;2024-03-25T05:13:27;7.83;53.53
65707;SHT31;52423;43.512;5.220;2024-03-25T05:15:52;7.87;54.94
65707;SHT31;52423;43.512;5.220;2024-03-25T05:18:18;7.87;54.49
65707;SHT31;52423;43.512;5.220;2024-03-25T05:20:44;7.90;54.16
65707;SHT31;52423;43.512;5.220;2024-03-25T05:23:09;7.84;54.19
65707;SHT31;52423;43.512;5.220;2024-03-25T05:25:36;7.86;53.90
65707;SHT31;52423;43.512;5.220;2024-03-25T05:28:01;7.83;53.65
65707;SHT31;52423;43.512;5.220;2024-03-25T05:30:27;7.80;54.35
65707;SHT31;52423;43.512;5.220;2024-03-25T05:32:52;7.81;53.68
65707;SHT31;52423;43.512;5.220;2024-03-25T05:35:18;7.77;53.00
65707;SHT31;52423;43.512;5.220;2024-03-25T05:37:43;7.77;54.00
65707;SHT31;52423;43.512;5.220;2024-03-25T05:40:09;7.81;55.13
65707;SHT31;52423;43.512;5.220;2024-03-25T05:42:37;7.87;54.47
65707;SHT31;52423;43.512;5.220;2024-03-25T05:45:02;7.90;54.94
65707;SHT31;52423;43.512;5.220;2024-03-25T05:47:28;7.97;54.14
65707;SHT31;52423;43.512;5.220;2024-03-25T05:49:53;8.02;53.86
65707;SHT31;52423;43.512;5.220;2024-03-25T05:52:18;7.98;55.58
65707;SHT31;52423;43.512;5.220;2024-03-25T05:54:44;7.87;57.00
65707;SHT31;52423;43.512;5.220;2024-03-25T05:57:09;7.84;56.38
65707;SHT31;52423;43.512;5.220;2024-03-25T05:59:35;7.89;56.70
65707;SHT31;52423;43.512;5.220;2024-03-25T06:02:00;7.81;56.79
65707;SHT31;52423;43.512;5.220;2024-03-25T06:04:25;7.90;56.19
65707;SHT31;52423;43.512;5.220;2024-03-25T06:06:51;7.89;57.09
65707;SHT31;52423;43.512;5.220;2024-03-25T06:09:16;7.97;55.25
65707;SHT31;52423;43.512;5.220;2024-03-25T06:11:41;8.04;54.58
65707;SHT31;52423;43.512;5.220;2024-03-25T06:14:07;8.11;53.91
65707;SHT31;52423;43.512;5.220;2024-03-25T06:16:33;8.15;54.31
65707;SHT31;52423;43.512;5.220;2024-03-25T06:18:58;8.21;53.34
65707;SHT31;52423;43.512;5.220;2024-03-25T06:21:24;8.30;52.78
65707;SHT31;52423;43.512;5.220;2024-03-25T06:23:49;8.31;53.17
65707;SHT31;52423;43.512;5.220;2024-03-25T06:26:14;8.34;54.39
65707;SHT31;52423;43.512;5.220;2024-03-25T06:28:42;8.41;54.16
65707;SHT31;52423;43.512;5.220;2024-03-25T06:31:08;8.48;53.32
65707;SHT31;52423;43.512;5.220;2024-03-25T06:33:51;8.53;53.40
65707;SHT31;52423;43.512;5.220;2024-03-25T06:36:35;8.61;53.14
65707;SHT31;52423;43.512;5.220;2024-03-25T06:39:00;8.69;52.71
65707;SHT31;52423;43.512;5.220;2024-03-25T06:41:26;8.72;52.35
65707;SHT31;52423;43.512;5.220;2024-03-25T06:43:52;8.77;52.59
65707;SHT31;52423;43.512;5.220;2024-03-25T06:46:17;8.80;52.93
65707;SHT31;52423;43.512;5.220;2024-03-25T06:48:42;8.84;52.59
65707;SHT31;52423;43.512;5.220;2024-03-25T06:51:08;8.84;52.72
65707;SHT31;52423;43.512;5.220;2024-03-25T06:53:33;8.92;52.20
65707;SHT31;52423;43.512;5.220;2024-03-25T06:55:59;8.93;52.85
65707;SHT31;52423;43.512;5.220;2024-03-25T06:58:26;8.97;53.56
65707;SHT31;52423;43.512;5.220;2024-03-25T07:00:52;9.07;53.97
65707;SHT31;52423;43.512;5.220;2024-03-25T07:03:19;9.20;53.47
65707;SHT31;52423;43.512;5.220;2024-03-25T07:05:45;9.34;53.94
65707;SHT31;52423;43.512;5.220;2024-03-25T07:08:12;9.44;52.22
65707;SHT31;52423;43.512;5.220;2024-03-25T07:10:37;9.58;53.77
65707;SHT31;52423;43.512;5.220;2024-03-25T07:13:03;9.67;52.85
65707;SHT31;52423;43.512;5.220;2024-03-25T07:15:29;9.78;51.52
65707;SHT31;52423;43.512;5.220;2024-03-25T07:17:54;9.85;51.59
65707;SHT31;52423;43.512;5.220;2024-03-25T07:20:20;9.86;52.33
65707;SHT31;52423;43.512;5.220;2024-03-25T07:22:47;9.95;52.19
65707;SHT31;52423;43.512;5.220;2024-03-25T07:25:13;10.02;52.42
65707;SHT31;52423;43.512;5.220;2024-03-25T07:27:38;10.01;52.32
65707;SHT31;52423;43.512;5.220;2024-03-25T07:30:05;10.05;51.81
65707;SHT31;52423;43.512;5.220;2024-03-25T07:32:32;10.08;52.97
65707;SHT31;52423;43.512;5.220;2024-03-25T07:34:57;10.16;52.09
65707;SHT31;52423;43.512;5.220;2024-03-25T07:37:22;10.13;55.20
65707;SHT31;52423;43.512;5.220;2024-03-25T07:39:48;10.13;54.06
65707;SHT31;52423;43.512;5.220;2024-03-25T07:42:13;10.16;53.86
65707;SHT31;52423;43.512;5.220;2024-03-25T07:44:39;10.17;53.53
65707;SHT31;52423;43.512;5.220;2024-03-25T07:47:04;10.19;53.61
65707;SHT31;52423;43.512;5.220;2024-03-25T07:49:31;10.23;53.04
65707;SHT31;52423;43.512;5.220;2024-03-25T07:51:57;10.32;53.31
65707;SHT31;52423;43.512;5.220;2024-03-25T07:54:22;10.36;53.80
65707;SHT31;52423;43.512;5.220;2024-03-25T07:56:47;10.42;51.96
65707;SHT31;52423;43.512;5.220;2024-03-25T07:59:13;10.56;51.98
65707;SHT31;52423;43.512;5.220;2024-03-25T08:01:38;10.70;52.17
65707;SHT31;52423;43.512;5.220;2024-03-25T08:04:03;10.74;52.08
65707;SHT31;52423;43.512;5.220;2024-03-25T08:06:29;10.78;51.94
65707;SHT31;52423;43.512;5.220;2024-03-25T08:08:54;10.91;50.52
65707;SHT31;52423;43.512;5.220;2024-03-25T08:11:19;11.05;50.32
65707;SHT31;52423;43.512;5.220;2024-03-25T08:13:46;11.36;50.17
65707;SHT31;52423;43.512;5.220;2024-03-25T08:16:11;11.42;47.76
65707;SHT31;52423;43.512;5.220;2024-03-25T08:18:37;11.42;51.21
65707;SHT31;52423;43.512;5.220;2024-03-25T08:21:02;11.47;50.34
65707;SHT31;52423;43.512;5.220;2024-03-25T08:23:28;11.52;49.18
65707;SHT31;52423;43.512;5.220;2024-03-25T08:25:53;11.56;49.47
65707;SHT31;52423;43.512;5.220;2024-03-25T08:28:18;11.73;50.65
65707;SHT31;52423;43.512;5.220;2024-03-25T08:30:44;11.91;48.66
65707;SHT31;52423;43.512;5.220;2024-03-25T08:33:09;12.05;50.51
65707;SHT31;52423;43.512;5.220;2024-03-25T08:35:34;12.23;50.65
65707;SHT31;52423;43.512;5.220;2024-03-25T08:38:00;12.40;49.88
65707;SHT31;52423;43.512;5.220;2024-03-25T08:40:25;12.48;48.45
65707;SHT31;52423;43.512;5.220;2024-03-25T08:42:51;12.65;49.06
65707;SHT31;52423;43.512;5.220;2024-03-25T08:45:16;12.91;47.93
65707;SHT31;52423;43.512;5.220;2024-03-25T08:47:41;13.03;45.72
65707;SHT31;52423;43.512;5.220;2024-03-25T08:50:08;13.17;47.81
65707;SHT31;52423;43.512;5.220;2024-03-25T08:52:33;13.20;46.87
65707;SHT31;52423;43.512;5.220;2024-03-25T08:54:59;13.19;45.75
65707;SHT31;52423;43.512;5.220;2024-03-25T08:57:24;13.34;45.78
65707;SHT31;52423;43.512;5.220;2024-03-25T08:59:49;13.46;45.63
65707;SHT31;52423;43.512;5.220;2024-03-25T09:02:15;13.51;44.48
65707;SHT31;52423;43.512;5.220;2024-03-25T09:04:40;13.63;46.35
65707;SHT31;52423;43.512;5.220;2024-03-25T09:07:06;13.78;46.54
65707;SHT31;52423;43.512;5.220;2024-03-25T09:09:31;14.00;45.06
65707;SHT31;52423;43.512;5.220;2024-03-25T09:12:23;14.19;44.07
65707;SHT31;52423;43.512;5.220;2024-03-25T09:14:48;14.33;44.66
65707;SHT31;52423;43.512;5.220;2024-03-25T09:17:13;14.34;44.73
65707;SHT31;52423;43.512;5.220;2024-03-25T09:19:39;14.33;43.80
65707;SHT31;52423;43.512;5.220;2024-03-25T09:22:04;14.32;43.06
65707;SHT31;52423;43.512;5.220;2024-03-25T09:24:30;14.37;43.66
65707;SHT31;52423;43.512;5.220;2024-03-25T09:26:55;14.34;43.27
65707;SHT31;52423;43.512;5.220;2024-03-25T09:29:20;14.34;42.67
65707;SHT31;52423;43.512;5.220;2024-03-25T09:31:46;14.37;44.20
65707;SHT31;52423;43.512;5.220;2024-03-25T09:34:11;14.40;43.83
65707;SHT31;52423;43.512;5.220;2024-03-25T09:36:36;14.43;43.62
65707;SHT31;52423;43.512;5.220;2024-03-25T09:39:02;14.47;43.19
65707;SHT31;52423;43.512;5.220;2024-03-25T09:41:30;14.47;41.79
65707;SHT31;52423;43.512;5.220;2024-03-25T09:43:59;14.56;42.74
65707;SHT31;52423;43.512;5.220;2024-03-25T09:46:26;14.64;41.32
65707;SHT31;52423;43.512;5.220;2024-03-25T09:48:54;14.66;42.52
65707;SHT31;52423;43.512;5.220;2024-03-25T09:51:20;14.72;44.02
65707;SHT31;52423;43.512;5.220;2024-03-25T09:53:46;14.90;42.76
65707;SHT31;52423;43.512;5.220;2024-03-25T09:56:12;14.97;44.68
65707;SHT31;52423;43.512;5.220;2024-03-25T09:58:39;15.10;44.38
65707;SHT31;52423;43.512;5.220;2024-03-25T10:01:04;15.30;43.54
65707;SHT31;52423;43.512;5.220;2024-03-25T10:03:30;15.44;44.79
65707;SHT31;52423;43.512;5.220;2024-03-25T10:05:55;15.62;40.74
65707;SHT31;52423;43.512;5.220;2024-03-25T10:08:21;15.81;45.33
65707;SHT31;52423;43.512;5.220;2024-03-25T10:10:47;15.90;39.86
65707;SHT31;52423;43.512;5.220;2024-03-25T10:13:12;15.72;41.66
65707;SHT31;52423;43.512;5.220;2024-03-25T10:15:37;15.56;42.30
65707;SHT31;52423;43.512;5.220;2024-03-25T10:18:03;15.46;40.92
65707;SHT31;52423;43.512;5.220;2024-03-25T10:20:28;15.39;44.01
65707;SHT31;52423;43.512;5.220;2024-03-25T10:22:54;15.42;41.90
65707;SHT31;52423;43.512;5.220;2024-03-25T10:25:30;15.28;42.02
65707;SHT31;52423;43.512;5.220;2024-03-25T10:27:59;15.18;43.05
65707;SHT31;52423;43.512;5.220;2024-03-25T10:30:29;15.20;41.95
65707;SHT31;52423;43.512;5.220;2024-03-25T10:35:26;15.14;42.16
65707;SHT31;52423;43.512;5.220;2024-03-25T10:37:58;15.12;42.71
65707;SHT31;52423;43.512;5.220;2024-03-25T10:40:28;15.08;41.64
65707;SHT31;52423;43.512;5.220;2024-03-25T10:43:01;15.08;43.63
65707;SHT31;52423;43.512;5.220;2024-03-25T10:45:29;15.05;41.99
65707;SHT31;52423;43.512;5.220;2024-03-25T10:48:02;15.12;42.57
65707;SHT31;52423;43.512;5.220;2024-03-25T10:50:29;15.11;43.94
65707;SHT31;52423;43.512;5.220;2024-03-25T10:52:57;15.28;43.91
65707;SHT31;52423;43.512;5.220;2024-03-25T10:55:22;15.48;43.90
65707;SHT31;52423;43.512;5.220;2024-03-25T10:57:48;15.63;43.70
65707;SHT31;52423;43.512;5.220;2024-03-25T11:00:15;15.73;44.42
65707;SHT31;52423;43.512;5.220;2024-03-25T11:02:42;15.69;45.25
65707;SHT31;52423;43.512;5.220;2024-03-25T11:05:09;15.67;45.17
65707;SHT31;52423;43.512;5.220;2024-03-25T11:07:35;15.69;43.83
65707;SHT31;52423;43.512;5.220;2024-03-25T11:10:06;15.67;44.41
65707;SHT31;52423;43.512;5.220;2024-03-25T11:12:35;15.59;43.77
65707;SHT31;52423;43.512;5.220;2024-03-25T11:15:05;15.53;46.96
65707;SHT31;52423;43.512;5.220;2024-03-25T11:17:31;15.55;44.62
65707;SHT31;52423;43.512;5.220;2024-03-25T11:20:12;15.53;45.61
65707;SHT31;52423;43.512;5.220;2024-03-25T11:22:49;15.56;45.96
65707;SHT31;52423;43.512;5.220;2024-03-25T11:25:15;15.61;44.48
65707;SHT31;52423;43.512;5.220;2024-03-25T11:27:43;15.67;44.95
65707;SHT31;52423;43.512;5.220;2024-03-25T11:30:10;15.75;46.35
65707;SHT31;52423;43.512;5.220;2024-03-25T11:32:49;15.66;45.56
65707;SHT31;52423;43.512;5.220;2024-03-25T11:35:16;15.75;47.00
65707;SHT31;52423;43.512;5.220;2024-03-25T11:37:42;15.67;47.69
65707;SHT31;52423;43.512;5.220;2024-03-25T11:40:08;15.66;46.78
65707;SHT31;52423;43.512;5.220;2024-03-25T11:42:38;15.62;45.01
65707;SHT31;52423;43.512;5.220;2024-03-25T11:45:05;15.63;46.71
65707;SHT31;52423;43.512;5.220;2024-03-25T11:47:31;15.59;46.19
65707;SHT31;52423;43.512;5.220;2024-03-25T11:49:56;15.59;45.84
65707;SHT31;52423;43.512;5.220;2024-03-25T11:52:22;15.59;48.63
65707;SHT31;52423;43.512;5.220;2024-03-25T11:54:54;15.66;46.90
65707;SHT31;52423;43.512;5.220;2024-03-25T11:57:20;15.63;48.91
65707;SHT31;52423;43.512;5.220;2024-03-25T11:59:46;15.70;49.33
65707;SHT31;52423;43.512;5.220;2024-03-25T12:02:16;15.81;47.10
65707;SHT31;52423;43.512;5.220;2024-03-25T12:04:42;15.82;47.77
65707;SHT31;52423;43.512;5.220;2024-03-25T12:07:07;15.85;46.85
65707;SHT31;52423;43.512;5.220;2024-03-25T12:09:33;15.81;47.72
65707;SHT31;52423;43.512;5.220;2024-03-25T12:12:17;15.79;47.10
65707;SHT31;52423;43.512;5.220;2024-03-25T12:14:42;15.90;49.07
65707;SHT31;52423;43.512;5.220;2024-03-25T12:17:07;15.94;49.57
65707;SHT31;52423;43.512;5.220;2024-03-25T12:19:33;16.12;49.58
65707;SHT31;52423;43.512;5.220;2024-03-25T12:22:01;16.31;50.73
65707;SHT31;52423;43.512;5.220;2024-03-25T12:24:28;16.31;50.96
65707;SHT31;52423;43.512;5.220;2024-03-25T12:26:54;16.25;53.60
65707;SHT31;52423;43.512;5.220;2024-03-25T12:29:19;16.18;53.73
65707;SHT31;52423;43.512;5.220;2024-03-25T12:31:54;16.17;52.53
65707;SHT31;52423;43.512;5.220;2024-03-25T12:34:19;16.13;54.34
65707;SHT31;52423;43.512;5.220;2024-03-25T12:36:45;16.09;55.47
65707;SHT31;52423;43.512;5.220;2024-03-25T12:39:16;16.02;54.69
65707;SHT31;52423;43.512;5.220;2024-03-25T12:41:41;16.06;53.32
65707;SHT31;52423;43.512;5.220;2024-03-25T12:44:07;16.09;47.29
65707;SHT31;52423;43.512;5.220;2024-03-25T12:46:32;16.17;47.72
65707;SHT31;52423;43.512;5.220;2024-03-25T12:48:58;16.23;50.35
65707;SHT31;52423;43.512;5.220;2024-03-25T12:51:24;16.27;51.21
65707;SHT31;52423;43.512;5.220;2024-03-25T12:53:50;16.33;50.91
65707;SHT31;52423;43.512;5.220;2024-03-25T12:56:16;16.37;50.89
65707;SHT31;52423;43.512;5.220;2024-03-25T12:58:41;16.45;50.65
65707;SHT31;52423;43.512;5.220;2024-03-25T13:01:06;16.47;48.17
65707;SHT31;52423;43.512;5.220;2024-03-25T13:03:32;16.50;47.99
65707;SHT31;52423;43.512;5.220;2024-03-25T13:05:58;16.47;48.41
65707;SHT31;52423;43.512;5.220;2024-03-25T13:08:24;16.37;47.44
65707;SHT31;52423;43.512;5.220;2024-03-25T13:10:50;16.33;47.89
65707;SHT31;52423;43.512;5.220;2024-03-25T13:13:15;16.33;47.64
65707;SHT31;52423;43.512;5.220;2024-03-25T13:15:41;16.27;46.91
65707;SHT31;52423;43.512;5.220;2024-03-25T13:18:08;16.27;47.42
65707;SHT31;52423;43.512;5.220;2024-03-25T13:20:34;16.23;47.72
65707;SHT31;52423;43.512;5.220;2024-03-25T13:22:59;16.16;48.86
65707;SHT31;52423;43.512;5.220;2024-03-25T13:25:25;16.09;48.42
65707;SHT31;52423;43.512;5.220;2024-03-25T13:27:54;15.97;48.22
65707;SHT31;52423;43.512;5.220;2024-03-25T13:30:19;15.99;47.19
65707;SHT31;52423;43.512;5.220;2024-03-25T13:32:45;15.94;47.78
65707;SHT31;52423;43.512;5.220;2024-03-25T13:35:10;15.99;47.58
65707;SHT31;52423;43.512;5.220;2024-03-25T13:37:36;15.93;46.70
65707;SHT31;52423;43.512;5.220;2024-03-25T13:40:01;15.89;46.43
65707;SHT31;52423;43.512;5.220;2024-03-25T13:42:26;15.83;46.39
65707;SHT31;52423;43.512;5.220;2024-03-25T13:44:52;15.78;46.09
65707;SHT31;52423;43.512;5.220;2024-03-25T13:47:17;15.78;45.89
65707;SHT31;52423;43.512;5.220;2024-03-25T13:49:42;15.82;45.29
65707;SHT31;52423;43.512;5.220;2024-03-25T13:52:08;15.78;45.93
65707;SHT31;52423;43.512;5.220;2024-03-25T13:54:33;15.78;46.64
65707;SHT31;52423;43.512;5.220;2024-03-25T13:56:59;15.78;47.69
65707;SHT31;52423;43.512;5.220;2024-03-25T13:59:24;15.81;46.80
65707;SHT31;52423;43.512;5.220;2024-03-25T14:01:50;15.75;47.29
65707;SHT31;52423;43.512;5.220;2024-03-25T14:04:17;15.70;47.92
65707;SHT31;52423;43.512;5.220;2024-03-25T14:06:42;15.69;48.24
65707;SHT31;52423;43.512;5.220;2024-03-25T14:09:07;15.76;49.63
65707;SHT31;52423;43.512;5.220;2024-03-25T14:11:37;15.78;49.93
65707;SHT31;52423;43.512;5.220;2024-03-25T14:14:03;15.85;49.41
65707;SHT31;52423;43.512;5.220;2024-03-25T14:16:28;15.89;49.15
65707;SHT31;52423;43.512;5.220;2024-03-25T14:18:54;16.00;50.07
65707;SHT31;52423;43.512;5.220;2024-03-25T14:21:19;16.04;49.64
65707;SHT31;52423;43.512;5.220;2024-03-25T14:23:45;16.09;50.32
65707;SHT31;52423;43.512;5.220;2024-03-25T14:26:12;16.12;49.82
65707;SHT31;52423;43.512;5.220;2024-03-25T14:28:40;16.14;49.38
65707;SHT31;52423;43.512;5.220;2024-03-25T14:31:06;16.14;50.07
65707;SHT31;52423;43.512;5.220;2024-03-25T14:33:31;16.17;49.49
65707;SHT31;52423;43.512;5.220;2024-03-25T14:35:56;16.14;50.21
65707;SHT31;52423;43.512;5.220;2024-03-25T14:38:22;16.09;49.87
65707;SHT31;52423;43.512;5.220;2024-03-25T14:40:47;16.03;50.35
65707;SHT31;52423;43.512;5.220;2024-03-25T14:43:13;16.07;50.43
65707;SHT31;52423;43.512;5.220;2024-03-25T14:45:38;16.07;49.81
65707;SHT31;52423;43.512;5.220;2024-03-25T14:48:04;16.07;50.53
65707;SHT31;52423;43.512;5.220;2024-03-25T14:50:29;16.04;50.04
65707;SHT31;52423;43.512;5.220;2024-03-25T14:52:55;16.00;49.72
65707;SHT31;52423;43.512;5.220;2024-03-25T14:55:20;15.96;48.75
65707;SHT31;52423;43.512;5.220;2024-03-25T14:57:45;15.96;49.62
65707;SHT31;52423;43.512;5.220;2024-03-25T15:00:11;15.87;49.88
65707;SHT31;52423;43.512;5.220;2024-03-25T15:02:37;15.79;50.13
65707;SHT31;52423;43.512;5.220;2024-03-25T15:05:02;15.76;49.97
65707;SHT31;52423;43.512;5.220;2024-03-25T15:07:30;15.76;50.60
65707;SHT31;52423;43.512;5.220;2024-03-25T15:09:55;15.75;50.97
65707;SHT31;52423;43.512;5.220;2024-03-25T15:12:21;15.70;51.73
65707;SHT31;52423;43.512;5.220;2024-03-25T15:14:49;15.76;53.03
65707;SHT31;52423;43.512;5.220;2024-03-25T15:17:14;15.79;53.26
65707;SHT31;52423;43.512;5.220;2024-03-25T15:19:40;15.70;53.48
65707;SHT31;52423;43.512;5.220;2024-03-25T15:22:05;15.63;53.71
65707;SHT31;52423;43.512;5.220;2024-03-25T15:24:30;15.59;53.95
65707;SHT31;52423;43.512;5.220;2024-03-25T15:26:56;15.49;53.35
65707;SHT31;52423;43.512;5.220;2024-03-25T15:29:21;15.41;53.72
65707;SHT31;52423;43.512;5.220;2024-03-25T15:31:47;15.35;53.17
65707;SHT31;52423;43.512;5.220;2024-03-25T15:34:12;15.34;56.25